Main page
METAR-TAF:

METAR-TAF

Airports :

Chino Airport

Chino, California, United States

latitude: 33-58-32N, longitude: 117-37-25W, elevation: 649 ft

Current weather observation

The report was made 8 minutes ago, at 16:53 UTC
Wind 3 mph from the West/Southwest
Temperature 61°F
Humidity 82%
Pressure 29.94 in. Hg
Visibility: 2 miles
Scattered clouds at a height of 700 ft
Overcast at a height of 1400 ft
mist

METAR: KCNO 251653Z 25003KT 2SM BR SCT007 OVC014 16/13 A2994 RMK AO2 SLP134 T01560133

Time: 10:01 (17:01 UTC)


TAF: missing

Weather observations and forecasts of more than 4000 airports (METAR and TAF reports).

The available stations are represented by yellow and red dots on the map.

Hover mouse over dot to see the name of the station.

Then click to see weather observations and forecasts.

To change the map : click on the green buttons with a black cross to zoom in, on the green button with a dash to zoom out, or on the green arrows for adjacent maps.


METAR-TAF: